createdAt,value
2023-05-05T00:01:04.432Z,49.16
2023-05-05T00:03:34.556Z,49.50
2023-05-05T00:06:02.662Z,50.02
2023-05-05T00:08:30.902Z,49.87
2023-05-05T00:11:00.502Z,49.76
2023-05-05T00:13:28.734Z,49.95
2023-05-05T00:15:56.820Z,50.10
2023-05-05T00:18:25.106Z,50.93
2023-05-05T00:20:53.294Z,50.63
2023-05-05T00:23:21.668Z,50.53
2023-05-05T00:25:49.661Z,50.40
2023-05-05T00:28:19.448Z,50.41
2023-05-05T00:30:47.554Z,50.54
2023-05-05T00:33:15.999Z,51.33
2023-05-05T00:35:44.291Z,50.85
2023-05-05T00:38:12.576Z,51.59
2023-05-05T00:40:40.754Z,51.83
2023-05-05T00:43:09.055Z,51.50
2023-05-05T00:45:42.616Z,52.01
2023-05-05T00:48:11.119Z,51.76
2023-05-05T00:50:39.480Z,52.14
2023-05-05T00:53:07.937Z,51.96
2023-05-05T00:55:36.583Z,52.50
2023-05-05T00:58:05.039Z,52.55
2023-05-05T01:00:34.169Z,52.19
2023-05-05T01:03:05.161Z,52.16
2023-05-05T01:05:39.151Z,51.50
2023-05-05T01:08:28.544Z,51.06
2023-05-05T01:11:02.989Z,51.00
2023-05-05T01:13:37.227Z,51.14
2023-05-05T01:16:09.328Z,51.91
2023-05-05T01:18:43.207Z,51.72
2023-05-05T01:21:15.306Z,51.44
2023-05-05T01:24:02.044Z,50.89
2023-05-05T01:26:44.405Z,51.43
2023-05-05T01:29:28.409Z,52.40
2023-05-05T01:31:58.694Z,53.51
2023-05-05T01:34:29.153Z,53.70
2023-05-05T01:37:07.328Z,54.88
2023-05-05T01:39:36.222Z,55.25
2023-05-05T01:42:07.760Z,55.40
2023-05-05T01:44:37.892Z,55.42
2023-05-05T01:47:07.478Z,55.60
2023-05-05T01:49:37.226Z,56.24
2023-05-05T01:52:06.159Z,56.88
2023-05-05T01:54:35.636Z,56.90
2023-05-05T01:57:04.696Z,57.58
2023-05-05T01:59:33.390Z,58.57
2023-05-05T02:02:03.238Z,58.51
2023-05-05T02:04:33.928Z,59.17
2023-05-05T02:07:02.906Z,59.50
2023-05-05T02:09:32.088Z,59.16
2023-05-05T02:12:00.576Z,59.11
2023-05-05T02:14:30.661Z,59.36
2023-05-05T02:16:59.272Z,59.68
2023-05-05T02:19:30.944Z,59.15
2023-05-05T02:22:00.381Z,59.01
2023-05-05T02:24:30.815Z,58.87
2023-05-05T02:26:59.336Z,58.75
2023-05-05T02:29:32.794Z,58.79
2023-05-05T02:32:04.277Z,58.98
2023-05-05T02:34:36.075Z,59.16
2023-05-05T02:37:09.978Z,59.75
2023-05-05T02:39:44.346Z,59.35
2023-05-05T02:42:19.690Z,59.38
2023-05-05T02:44:50.456Z,59.21
2023-05-05T02:47:18.666Z,58.47
2023-05-05T02:49:46.919Z,58.72
2023-05-05T02:52:16.338Z,58.87
2023-05-05T02:54:46.076Z,58.88
2023-05-05T02:57:20.485Z,59.02
2023-05-05T03:00:00.471Z,58.45
2023-05-05T03:02:34.433Z,56.96
2023-05-05T03:05:07.486Z,57.09
2023-05-05T03:07:44.232Z,57.03
2023-05-05T03:10:15.112Z,57.23
2023-05-05T03:12:50.888Z,56.55
2023-05-05T03:15:27.298Z,56.97
2023-05-05T03:17:57.164Z,56.85
2023-05-05T03:20:26.253Z,57.20
2023-05-05T03:22:57.224Z,57.28
2023-05-05T03:25:43.912Z,57.21
2023-05-05T03:28:16.126Z,57.52
2023-05-05T03:30:44.758Z,57.77
2023-05-05T03:33:14.337Z,57.45
2023-05-05T03:35:43.828Z,57.93
2023-05-05T03:38:15.373Z,57.66
2023-05-05T03:40:45.049Z,58.30
2023-05-05T03:43:17.213Z,57.80
2023-05-05T03:45:45.726Z,57.99
2023-05-05T03:48:14.325Z,58.42
2023-05-05T03:50:45.747Z,58.99
2023-05-05T03:53:16.632Z,60.42
2023-05-05T03:55:47.541Z,59.75
2023-05-05T03:58:16.630Z,61.15
2023-05-05T04:00:44.995Z,60.86
2023-05-05T04:03:13.495Z,61.31
2023-05-05T04:05:41.974Z,61.46
2023-05-05T04:08:10.625Z,61.70
2023-05-05T04:10:40.358Z,62.43
2023-05-05T04:13:09.374Z,62.74
2023-05-05T04:15:38.580Z,62.22
2023-05-05T04:18:07.118Z,62.11
2023-05-05T04:20:35.998Z,62.35
2023-05-05T04:23:04.339Z,62.06
2023-05-05T04:25:32.731Z,62.38
2023-05-05T04:28:02.240Z,62.25
2023-05-05T04:30:30.686Z,63.52
2023-05-05T04:32:58.823Z,64.18
2023-05-05T04:35:27.647Z,64.42
2023-05-05T04:37:56.071Z,64.38
2023-05-05T04:40:26.153Z,65.27
2023-05-05T04:42:55.088Z,65.94
2023-05-05T04:45:25.045Z,67.11
2023-05-05T04:47:53.185Z,67.09
2023-05-05T04:50:22.725Z,66.67
2023-05-05T04:52:52.652Z,67.46
2023-05-05T04:55:21.524Z,67.98
2023-05-05T04:57:49.585Z,67.21
2023-05-05T05:00:18.344Z,66.96
2023-05-05T05:02:47.800Z,66.63
2023-05-05T05:05:16.678Z,66.26
2023-05-05T05:07:45.823Z,65.75
2023-05-05T05:10:14.136Z,65.55
2023-05-05T05:12:42.225Z,66.08
2023-05-05T05:15:11.608Z,65.88
2023-05-05T05:17:39.672Z,67.53
2023-05-05T05:20:10.580Z,67.32
2023-05-05T05:22:39.241Z,68.83
2023-05-05T05:25:11.779Z,68.89
2023-05-05T05:27:41.603Z,68.12
2023-05-05T05:30:11.605Z,67.87
2023-05-05T05:32:39.957Z,67.53
2023-05-05T05:35:10.242Z,68.18
2023-05-05T05:37:38.779Z,67.24
2023-05-05T05:40:08.814Z,66.74
2023-05-05T05:42:38.227Z,66.88
2023-05-05T05:45:07.945Z,67.50
2023-05-05T05:47:36.469Z,66.84
2023-05-05T05:50:07.019Z,67.08
2023-05-05T05:52:37.209Z,66.90
2023-05-05T05:55:08.889Z,66.84
2023-05-05T05:57:37.282Z,66.76
2023-05-05T06:00:09.048Z,66.50
2023-05-05T06:02:40.124Z,65.70
2023-05-05T06:05:13.026Z,64.88
2023-05-05T06:07:44.421Z,64.74
2023-05-05T06:10:26.514Z,65.23
2023-05-05T06:13:01.782Z,64.58
2023-05-05T06:15:31.035Z,65.20
2023-05-05T06:17:59.917Z,65.40
2023-05-05T06:20:28.628Z,64.92
2023-05-05T06:22:58.442Z,64.17
2023-05-05T06:25:28.562Z,63.99
2023-05-05T06:27:56.744Z,64.32
2023-05-05T06:30:26.038Z,63.96
2023-05-05T06:32:54.864Z,64.40
2023-05-05T06:35:23.243Z,63.20
2023-05-05T06:37:51.377Z,64.12
2023-05-05T06:40:21.026Z,63.84
2023-05-05T06:42:49.107Z,64.03
2023-05-05T06:45:23.220Z,64.71
2023-05-05T06:47:52.395Z,65.36
2023-05-05T06:50:20.768Z,65.95
2023-05-05T06:52:48.927Z,66.58
2023-05-05T06:55:17.794Z,66.66
2023-05-05T06:57:47.197Z,65.51
2023-05-05T07:00:17.273Z,64.67
2023-05-05T07:02:47.416Z,64.52
2023-05-05T07:05:15.830Z,64.63
2023-05-05T07:07:52.330Z,64.11
2023-05-05T07:10:21.889Z,63.81
2023-05-05T07:12:51.511Z,63.72
2023-05-05T07:15:28.764Z,62.92
2023-05-05T07:17:58.452Z,62.10
2023-05-05T07:20:27.074Z,62.02
2023-05-05T07:22:55.176Z,62.32
2023-05-05T07:25:23.465Z,62.25
2023-05-05T07:27:52.888Z,62.53
2023-05-05T07:30:21.529Z,62.66
2023-05-05T07:32:51.328Z,62.37
2023-05-05T07:35:19.887Z,62.25
2023-05-05T07:37:48.074Z,61.12
2023-05-05T07:40:16.510Z,61.13
2023-05-05T07:42:44.606Z,61.93
2023-05-05T07:45:14.360Z,61.62
2023-05-05T07:47:42.629Z,62.15
2023-05-05T07:50:11.731Z,61.39
2023-05-05T07:55:11.265Z,60.62
2023-05-05T07:57:39.531Z,60.97
2023-05-05T08:00:09.300Z,60.39
2023-05-05T08:02:42.271Z,60.36
2023-05-05T08:05:12.442Z,60.37
2023-05-05T08:07:41.859Z,60.50
2023-05-05T08:10:11.866Z,60.08
2023-05-05T08:12:40.424Z,59.29
2023-05-05T08:15:09.627Z,59.15
2023-05-05T08:17:49.724Z,58.80
2023-05-05T08:20:18.624Z,58.44
2023-05-05T08:22:47.264Z,58.17
2023-05-05T08:25:15.711Z,58.07
2023-05-05T08:27:44.441Z,57.69
2023-05-05T08:30:13.534Z,56.91
2023-05-05T08:32:42.331Z,57.97
2023-05-05T08:35:12.697Z,57.43
2023-05-05T08:37:40.994Z,57.70
2023-05-05T08:40:12.763Z,58.05
2023-05-05T08:42:41.020Z,57.47
2023-05-05T08:45:11.337Z,58.36
2023-05-05T08:47:40.249Z,57.87
2023-05-05T08:50:12.709Z,57.40
2023-05-05T08:52:44.134Z,56.90
2023-05-05T08:55:20.570Z,57.97
2023-05-05T08:57:53.782Z,56.53
2023-05-05T09:00:26.414Z,55.95
2023-05-05T09:02:55.818Z,56.62
2023-05-05T09:05:25.860Z,57.00
2023-05-05T09:07:55.226Z,56.85
2023-05-05T09:10:23.565Z,56.34
2023-05-05T09:12:51.964Z,56.69
2023-05-05T09:15:20.436Z,55.15
2023-05-05T09:17:48.738Z,54.85
2023-05-05T09:20:17.154Z,54.39
2023-05-05T09:22:47.773Z,53.87
2023-05-05T09:25:17.167Z,53.24
2023-05-05T09:27:46.831Z,52.75
2023-05-05T09:30:18.836Z,53.52
2023-05-05T09:32:49.012Z,52.78
2023-05-05T09:35:18.090Z,51.08
2023-05-05T09:37:47.497Z,51.11
2023-05-05T09:40:17.565Z,49.78
2023-05-05T09:42:45.727Z,49.50
2023-05-05T09:45:27.273Z,49.36
2023-05-05T09:47:59.597Z,49.16
2023-05-05T09:50:30.730Z,48.05
2023-05-05T09:53:01.946Z,48.74
2023-05-05T09:55:31.939Z,49.26
2023-05-05T09:58:18.786Z,48.41
2023-05-05T10:00:47.478Z,48.83
2023-05-05T10:03:16.003Z,48.96
2023-05-05T10:05:50.342Z,49.01
2023-05-05T10:08:21.078Z,48.78
2023-05-05T10:10:52.431Z,48.85
2023-05-05T10:13:23.381Z,48.09
2023-05-05T10:15:53.086Z,48.52
2023-05-05T10:18:23.455Z,48.39
2023-05-05T10:20:57.159Z,47.31
2023-05-05T10:23:34.284Z,46.91
2023-05-05T10:26:04.499Z,46.53
2023-05-05T10:28:34.275Z,46.13
2023-05-05T10:31:12.781Z,45.27
2023-05-05T10:33:49.236Z,44.00
2023-05-05T10:36:17.947Z,44.79
2023-05-05T10:38:47.539Z,44.36
2023-05-05T10:41:16.538Z,44.11
2023-05-05T10:43:44.971Z,43.81
2023-05-05T10:46:13.698Z,44.08
2023-05-05T10:48:46.773Z,44.19
2023-05-05T10:51:39.402Z,43.33
2023-05-05T10:54:15.421Z,43.81
2023-05-05T10:56:44.066Z,43.67
2023-05-05T10:59:40.505Z,44.85
2023-05-05T11:02:25.640Z,43.49
2023-05-05T11:05:17.506Z,44.41
2023-05-05T11:07:46.665Z,44.38
2023-05-05T11:10:17.129Z,43.95
2023-05-05T11:13:20.682Z,42.54
2023-05-05T11:15:50.238Z,42.74
2023-05-05T11:18:33.847Z,44.39
2023-05-05T11:21:18.738Z,43.81
2023-05-05T11:23:49.308Z,42.89
2023-05-05T11:26:20.070Z,44.09
2023-05-05T11:29:02.370Z,43.97
2023-05-05T11:31:31.742Z,43.89
2023-05-05T11:34:28.246Z,43.57
2023-05-05T11:37:02.571Z,43.25
2023-05-05T11:39:38.427Z,43.51
2023-05-05T11:42:24.356Z,44.04
2023-05-05T11:44:53.165Z,44.19
2023-05-05T11:47:29.358Z,44.57
2023-05-05T11:49:58.045Z,43.35
2023-05-05T11:52:27.783Z,43.69
2023-05-05T11:55:01.435Z,43.51
2023-05-05T11:57:31.494Z,44.81
2023-05-05T12:00:02.204Z,45.16
2023-05-05T12:02:34.723Z,44.84
2023-05-05T12:05:03.570Z,44.21
2023-05-05T12:07:33.279Z,43.17
2023-05-05T12:10:02.746Z,43.46
2023-05-05T12:12:39.992Z,43.57
2023-05-05T12:15:09.340Z,42.51
2023-05-05T12:17:40.715Z,41.67
2023-05-05T12:20:11.254Z,42.30
2023-05-05T12:22:40.062Z,43.56
2023-05-05T12:25:09.308Z,43.77
2023-05-05T12:27:38.974Z,43.59
2023-05-05T12:30:15.987Z,44.22
2023-05-05T12:32:44.455Z,42.98
2023-05-05T12:35:13.799Z,43.26
2023-05-05T12:37:42.121Z,43.26
2023-05-05T12:40:48.380Z,44.18
2023-05-05T12:43:26.538Z,43.42
2023-05-05T12:46:02.525Z,44.94
2023-05-05T12:48:30.891Z,44.75
2023-05-05T12:51:27.083Z,44.39
2023-05-05T12:54:13.213Z,44.15
2023-05-05T12:56:44.332Z,44.28
2023-05-05T12:59:13.925Z,44.22
2023-05-05T13:01:50.192Z,43.19
2023-05-05T13:04:19.289Z,41.85
2023-05-05T13:06:49.119Z,41.66
2023-05-05T13:09:24.098Z,41.83
2023-05-05T13:11:54.573Z,41.87
2023-05-05T13:14:22.902Z,41.76
2023-05-05T13:16:51.183Z,41.70
2023-05-05T13:19:19.284Z,42.17
2023-05-05T13:21:47.546Z,41.44
2023-05-05T13:26:46.922Z,40.47
2023-05-05T13:29:16.390Z,41.17
2023-05-05T13:31:45.388Z,41.26
2023-05-05T13:34:13.462Z,40.85
2023-05-05T13:36:41.819Z,40.33
2023-05-05T13:39:11.171Z,40.89
2023-05-05T13:41:39.555Z,40.52
2023-05-05T13:44:07.556Z,40.10
2023-05-05T13:46:37.373Z,40.36
2023-05-05T13:49:05.616Z,40.53
2023-05-05T13:51:34.715Z,41.46
2023-05-05T13:54:03.801Z,41.22
2023-05-05T13:56:32.183Z,40.82
2023-05-05T13:59:00.843Z,41.92
2023-05-05T14:01:29.502Z,41.64
2023-05-05T14:03:59.036Z,41.53
2023-05-05T14:06:27.671Z,41.82
2023-05-05T14:08:55.830Z,41.55
2023-05-05T14:11:24.281Z,41.75
2023-05-05T14:13:52.703Z,42.74
2023-05-05T14:16:21.144Z,42.03
2023-05-05T14:18:49.269Z,42.54
2023-05-05T14:21:18.948Z,42.06
2023-05-05T14:23:47.045Z,42.19
2023-05-05T14:26:15.407Z,42.18
2023-05-05T14:28:43.595Z,42.08
2023-05-05T14:31:12.152Z,42.03
2023-05-05T14:33:40.205Z,42.30
2023-05-05T14:36:09.233Z,43.16
2023-05-05T14:38:38.802Z,43.46
2023-05-05T14:41:07.072Z,43.98
2023-05-05T14:43:36.718Z,44.22
2023-05-05T14:46:07.110Z,44.23
2023-05-05T14:48:35.497Z,44.26
2023-05-05T14:51:04.632Z,44.15
2023-05-05T14:53:32.779Z,44.71
2023-05-05T14:56:03.112Z,45.35
2023-05-05T14:58:31.252Z,45.39
2023-05-05T15:01:00.424Z,45.59
2023-05-05T15:03:28.713Z,45.74
2023-05-05T15:05:57.130Z,45.83
2023-05-05T15:08:25.315Z,46.12
2023-05-05T15:10:53.582Z,46.43
2023-05-05T15:13:23.085Z,45.72
2023-05-05T15:15:51.648Z,45.84
2023-05-05T15:18:20.007Z,45.15
2023-05-05T15:20:48.344Z,45.50
2023-05-05T15:23:16.405Z,45.44
2023-05-05T15:25:45.380Z,44.96
2023-05-05T15:28:13.461Z,45.24
2023-05-05T15:30:43.089Z,45.08
2023-05-05T15:33:11.784Z,44.65
2023-05-05T15:35:40.084Z,45.00
2023-05-05T15:38:08.247Z,45.17
2023-05-05T15:40:36.754Z,45.79
2023-05-05T15:43:04.821Z,46.66
2023-05-05T15:45:33.445Z,46.52
2023-05-05T15:48:02.810Z,48.94
2023-05-05T15:50:31.175Z,49.71
2023-05-05T15:52:59.581Z,51.24
2023-05-05T15:55:28.272Z,51.98
2023-05-05T15:57:56.543Z,53.51
2023-05-05T16:00:25.594Z,54.58
2023-05-05T16:02:54.156Z,55.20
2023-05-05T16:05:23.845Z,56.69
2023-05-05T16:07:53.520Z,57.87
2023-05-05T16:10:21.887Z,60.61
2023-05-05T16:12:50.074Z,64.26
2023-05-05T16:15:18.491Z,65.81
2023-05-05T16:17:46.870Z,65.99
2023-05-05T16:20:15.191Z,69.48
2023-05-05T16:22:44.692Z,71.62
2023-05-05T16:25:13.105Z,73.77
2023-05-05T16:27:41.153Z,72.01
2023-05-05T16:30:12.699Z,71.16
2023-05-05T16:32:40.793Z,67.54
2023-05-05T16:35:09.672Z,68.01
2023-05-05T16:37:37.928Z,66.70
2023-05-05T16:40:09.332Z,66.67
2023-05-05T16:42:37.513Z,67.34
2023-05-05T16:45:07.807Z,67.73
2023-05-05T16:47:36.078Z,68.04
2023-05-05T16:50:04.894Z,68.60
2023-05-05T16:52:33.053Z,69.05
2023-05-05T16:55:01.322Z,68.86
2023-05-05T16:57:30.691Z,67.97
2023-05-05T16:59:59.043Z,68.11
2023-05-05T17:02:27.286Z,68.03
2023-05-05T17:04:55.697Z,66.81
2023-05-05T17:07:23.821Z,66.41
2023-05-05T17:09:52.144Z,68.30
2023-05-05T17:12:20.194Z,71.22
2023-05-05T17:14:49.894Z,72.28
2023-05-05T17:17:18.152Z,73.09
2023-05-05T17:19:46.575Z,72.76
2023-05-05T17:22:14.631Z,71.79
2023-05-05T17:24:43.118Z,72.23
2023-05-05T17:27:11.230Z,72.19
2023-05-05T17:29:41.159Z,71.86
2023-05-05T17:32:10.943Z,71.31
2023-05-05T17:34:39.377Z,71.85
2023-05-05T17:37:08.949Z,71.67
2023-05-05T17:39:37.209Z,72.38
2023-05-05T17:42:05.613Z,72.30
2023-05-05T17:44:34.026Z,71.59
2023-05-05T17:47:02.726Z,71.01
2023-05-05T17:49:32.403Z,71.34
2023-05-05T17:52:00.442Z,72.81
2023-05-05T17:54:28.969Z,73.03
2023-05-05T17:56:57.326Z,73.37
2023-05-05T17:59:25.780Z,74.16
2023-05-05T18:01:53.912Z,74.27
2023-05-05T18:04:22.386Z,73.89
2023-05-05T18:06:51.882Z,73.79
2023-05-05T18:09:20.643Z,73.33
2023-05-05T18:11:48.745Z,72.19
2023-05-05T18:14:18.671Z,72.42
2023-05-05T18:16:49.753Z,73.22
2023-05-05T18:19:18.225Z,73.61
2023-05-05T18:21:46.303Z,73.38
2023-05-05T18:24:20.519Z,73.27
2023-05-05T18:26:49.895Z,73.28
2023-05-05T18:29:18.985Z,72.91
2023-05-05T18:31:48.428Z,73.01
2023-05-05T18:34:17.738Z,74.12
2023-05-05T18:36:46.463Z,74.04
2023-05-05T18:39:16.230Z,73.04
2023-05-05T18:41:44.366Z,73.56
2023-05-05T18:44:12.623Z,73.46
2023-05-05T18:46:40.942Z,74.15
2023-05-05T18:49:09.435Z,73.91
2023-05-05T18:51:37.571Z,72.41
2023-05-05T18:54:06.026Z,73.42
2023-05-05T18:56:35.487Z,73.42
2023-05-05T18:59:04.647Z,74.67
2023-05-05T19:01:32.872Z,75.43
2023-05-05T19:04:01.287Z,76.31
2023-05-05T19:06:29.340Z,77.24
2023-05-05T19:08:57.697Z,77.64
2023-05-05T19:11:25.801Z,78.44
2023-05-05T19:13:55.486Z,79.73
2023-05-05T19:16:23.801Z,80.11
2023-05-05T19:18:54.046Z,80.58
2023-05-05T19:21:22.263Z,80.38
2023-05-05T19:23:50.583Z,80.55
2023-05-05T19:26:18.746Z,81.04
2023-05-05T19:28:47.032Z,81.41
2023-05-05T19:31:16.462Z,81.73
2023-05-05T19:33:45.637Z,82.57
2023-05-05T19:36:13.850Z,82.56
2023-05-05T19:38:44.406Z,83.60
2023-05-05T19:41:13.922Z,83.14
2023-05-05T19:43:46.140Z,83.74
2023-05-05T19:46:15.693Z,84.18
2023-05-05T19:48:45.280Z,84.43
2023-05-05T19:51:13.586Z,84.29
2023-05-05T19:53:42.712Z,83.54
2023-05-05T19:56:11.507Z,82.39
2023-05-05T19:58:55.458Z,81.86
2023-05-05T20:01:25.970Z,81.19
2023-05-05T20:03:55.642Z,81.44
2023-05-05T20:06:24.307Z,81.69
2023-05-05T20:08:54.343Z,81.54
2023-05-05T20:11:23.249Z,82.61
2023-05-05T20:13:51.553Z,82.87
2023-05-05T20:16:21.528Z,82.42
2023-05-05T20:18:51.224Z,82.56
2023-05-05T20:21:19.669Z,82.56
2023-05-05T20:23:47.976Z,82.45
2023-05-05T20:26:16.224Z,82.23
2023-05-05T20:28:45.675Z,82.37
2023-05-05T20:31:15.002Z,82.06
2023-05-05T20:33:43.312Z,81.78
2023-05-05T20:36:12.951Z,81.57
2023-05-05T20:38:40.987Z,81.85
2023-05-05T20:41:09.271Z,81.98
2023-05-05T20:43:37.428Z,82.38
2023-05-05T20:46:05.767Z,82.19
2023-05-05T20:48:33.858Z,82.53
2023-05-05T20:51:04.396Z,82.82
2023-05-05T20:53:33.934Z,83.30
2023-05-05T20:56:02.195Z,83.28
2023-05-05T20:58:30.524Z,83.66
2023-05-05T21:00:58.954Z,84.69
2023-05-05T21:03:27.202Z,85.99
2023-05-05T21:05:55.676Z,87.12
2023-05-05T21:08:23.661Z,87.26
2023-05-05T21:10:53.254Z,89.25
2023-05-05T21:13:21.461Z,89.35
2023-05-05T21:15:51.355Z,89.98
2023-05-05T21:18:19.443Z,88.88
2023-05-05T21:20:47.742Z,89.41
2023-05-05T21:23:15.789Z,89.10
2023-05-05T21:25:44.019Z,89.93
2023-05-05T21:28:13.370Z,90.04
2023-05-05T21:30:41.778Z,89.30
2023-05-05T21:33:09.904Z,89.73
2023-05-05T21:35:38.321Z,89.54
2023-05-05T21:38:06.333Z,88.91
2023-05-05T21:40:34.799Z,88.90
2023-05-05T21:43:02.873Z,88.31
2023-05-05T21:45:32.548Z,89.41
2023-05-05T21:48:00.805Z,89.98
2023-05-05T21:50:29.611Z,90.33
2023-05-05T21:52:57.861Z,89.93
2023-05-05T21:55:26.237Z,89.53
2023-05-05T21:57:54.307Z,89.98
2023-05-05T22:00:22.637Z,89.86
2023-05-05T22:02:52.252Z,90.12
2023-05-05T22:05:20.694Z,89.35
2023-05-05T22:07:48.811Z,89.55
2023-05-05T22:10:17.389Z,89.59
2023-05-05T22:12:45.508Z,89.31
2023-05-05T22:15:13.788Z,89.61
2023-05-05T22:17:41.924Z,89.75
2023-05-05T22:20:12.484Z,90.05
2023-05-05T22:22:40.628Z,90.08
2023-05-05T22:25:10.095Z,89.94
2023-05-05T22:27:38.355Z,90.62
2023-05-05T22:30:08.268Z,91.41
2023-05-05T22:32:36.677Z,91.26
2023-05-05T22:35:07.225Z,90.89
2023-05-05T22:37:37.144Z,91.06
2023-05-05T22:40:09.499Z,91.08
2023-05-05T22:42:37.909Z,91.18
2023-05-05T22:45:06.982Z,91.36
2023-05-05T22:47:35.296Z,91.98
2023-05-05T22:50:03.777Z,92.26
2023-05-05T22:52:31.905Z,92.33
2023-05-05T22:55:01.558Z,91.96
2023-05-05T22:57:29.742Z,91.76
2023-05-05T22:59:58.095Z,91.93
2023-05-05T23:02:27.308Z,91.94
2023-05-05T23:04:55.858Z,92.04
2023-05-05T23:07:23.923Z,91.88
2023-05-05T23:09:52.206Z,92.00
2023-05-05T23:12:21.620Z,91.69
2023-05-05T23:14:49.984Z,91.94
2023-05-05T23:17:18.131Z,91.88
2023-05-05T23:19:48.439Z,91.65
2023-05-05T23:22:16.753Z,92.29
2023-05-05T23:24:45.134Z,92.54
2023-05-05T23:27:13.368Z,92.76
2023-05-05T23:29:42.973Z,93.16
2023-05-05T23:32:10.983Z,92.96
2023-05-05T23:34:39.388Z,93.09
2023-05-05T23:37:07.388Z,93.06
2023-05-05T23:39:35.698Z,93.85
2023-05-05T23:42:03.798Z,94.29
2023-05-05T23:44:32.021Z,93.67
2023-05-05T23:47:01.467Z,93.76
2023-05-05T23:49:29.772Z,93.29
2023-05-05T23:51:58.462Z,92.73
2023-05-05T23:54:27.054Z,92.45
2023-05-05T23:56:55.314Z,91.78
2023-05-05T23:59:23.622Z,91.93
